sensor_id;sensor_type;location;lat;lon;timestamp;temperature;humidity
8643;DHT22;4359;49.358;11.256;2022-12-29T00:01:32;4.30;99.90
8643;DHT22;4359;49.358;11.256;2022-12-29T00:03:57;4.30;99.90
8643;DHT22;4359;49.358;11.256;2022-12-29T00:06:23;4.30;99.90
8643;DHT22;4359;49.358;11.256;2022-12-29T00:08:49;4.50;99.90
8643;DHT22;4359;49.358;11.256;2022-12-29T00:11:15;4.60;99.90
8643;DHT22;4359;49.358;11.256;2022-12-29T00:13:42;4.60;99.90
8643;DHT22;4359;49.358;11.256;2022-12-29T00:16:26;4.70;99.90
8643;DHT22;4359;49.358;11.256;2022-12-29T00:18:52;4.70;99.90
8643;DHT22;4359;49.358;11.256;2022-12-29T00:21:18;4.70;99.90
8643;DHT22;4359;49.358;11.256;2022-12-29T00:24:02;4.70;99.90
8643;DHT22;4359;49.358;11.256;2022-12-29T00:26:40;4.80;99.90
8643;DHT22;4359;49.358;11.256;2022-12-29T00:29:24;4.80;99.90
8643;DHT22;4359;49.358;11.256;2022-12-29T00:32:09;4.80;99.90
8643;DHT22;4359;49.358;11.256;2022-12-29T00:34:53;4.80;99.90
8643;DHT22;4359;49.358;11.256;2022-12-29T00:37:35;4.80;99.90
8643;DHT22;4359;49.358;11.256;2022-12-29T00:40:19;4.90;99.90
8643;DHT22;4359;49.358;11.256;2022-12-29T00:43:03;5.00;99.90
8643;DHT22;4359;49.358;11.256;2022-12-29T00:45:48;5.00;99.90
8643;DHT22;4359;49.358;11.256;2022-12-29T00:48:13;5.00;99.90
8643;DHT22;4359;49.358;11.256;2022-12-29T00:50:39;5.10;99.90
8643;DHT22;4359;49.358;11.256;2022-12-29T00:53:04;5.10;99.90
8643;DHT22;4359;49.358;11.256;2022-12-29T00:55:30;5.10;99.90
8643;DHT22;4359;49.358;11.256;2022-12-29T00:57:55;5.10;99.90
8643;DHT22;4359;49.358;11.256;2022-12-29T01:00:21;5.20;99.90
8643;DHT22;4359;49.358;11.256;2022-12-29T01:02:46;5.30;99.90
8643;DHT22;4359;49.358;11.256;2022-12-29T01:05:12;5.20;99.90
8643;DHT22;4359;49.358;11.256;2022-12-29T01:07:37;5.30;99.90
8643;DHT22;4359;49.358;11.256;2022-12-29T01:10:03;5.40;99.90
8643;DHT22;4359;49.358;11.256;2022-12-29T01:12:37;5.60;99.90
8643;DHT22;4359;49.358;11.256;2022-12-29T01:15:10;5.60;99.90
8643;DHT22;4359;49.358;11.256;2022-12-29T01:17:35;5.70;99.90
8643;DHT22;4359;49.358;11.256;2022-12-29T01:20:02;5.70;99.90
8643;DHT22;4359;49.358;11.256;2022-12-29T01:22:28;5.80;99.90
8643;DHT22;4359;49.358;11.256;2022-12-29T01:24:53;5.80;99.90
8643;DHT22;4359;49.358;11.256;2022-12-29T01:27:19;5.90;99.90
8643;DHT22;4359;49.358;11.256;2022-12-29T01:29:44;5.90;99.90
8643;DHT22;4359;49.358;11.256;2022-12-29T01:32:10;5.90;99.90
8643;DHT22;4359;49.358;11.256;2022-12-29T01:34:35;5.90;99.90
8643;DHT22;4359;49.358;11.256;2022-12-29T01:37:01;5.90;99.90
8643;DHT22;4359;49.358;11.256;2022-12-29T01:39:26;5.90;99.90
8643;DHT22;4359;49.358;11.256;2022-12-29T01:41:52;5.80;99.90
8643;DHT22;4359;49.358;11.256;2022-12-29T01:47:02;5.80;99.90
8643;DHT22;4359;49.358;11.256;2022-12-29T01:49:27;5.90;99.90
8643;DHT22;4359;49.358;11.256;2022-12-29T01:51:55;6.00;99.90
8643;DHT22;4359;49.358;11.256;2022-12-29T01:54:23;6.00;99.90
8643;DHT22;4359;49.358;11.256;2022-12-29T01:56:51;6.00;99.90
8643;DHT22;4359;49.358;11.256;2022-12-29T01:59:18;6.00;99.90
8643;DHT22;4359;49.358;11.256;2022-12-29T02:01:44;6.00;99.90
8643;DHT22;4359;49.358;11.256;2022-12-29T02:04:10;6.20;99.90
8643;DHT22;4359;49.358;11.256;2022-12-29T02:06:53;6.20;99.90
8643;DHT22;4359;49.358;11.256;2022-12-29T02:09:20;6.30;99.90
8643;DHT22;4359;49.358;11.256;2022-12-29T02:11:46;6.60;99.90
8643;DHT22;4359;49.358;11.256;2022-12-29T02:14:13;6.80;99.90
8643;DHT22;4359;49.358;11.256;2022-12-29T02:17:00;7.00;99.90
8643;DHT22;4359;49.358;11.256;2022-12-29T02:19:36;7.00;99.90
8643;DHT22;4359;49.358;11.256;2022-12-29T02:22:10;7.20;99.90
8643;DHT22;4359;49.358;11.256;2022-12-29T02:32:28;7.40;99.90
8643;DHT22;4359;49.358;11.256;2022-12-29T02:35:41;7.60;99.90
8643;DHT22;4359;49.358;11.256;2022-12-29T02:42:46;7.70;99.90
8643;DHT22;4359;49.358;11.256;2022-12-29T02:45:24;7.70;99.90
8643;DHT22;4359;49.358;11.256;2022-12-29T02:50:25;7.50;99.90
8643;DHT22;4359;49.358;11.256;2022-12-29T02:52:54;7.50;99.90
8643;DHT22;4359;49.358;11.256;2022-12-29T02:55:22;7.50;99.90
8643;DHT22;4359;49.358;11.256;2022-12-29T02:57:47;7.50;99.90
8643;DHT22;4359;49.358;11.256;2022-12-29T03:00:16;7.50;99.90
8643;DHT22;4359;49.358;11.256;2022-12-29T03:05:17;7.60;99.90
8643;DHT22;4359;49.358;11.256;2022-12-29T03:12:42;7.60;99.90
8643;DHT22;4359;49.358;11.256;2022-12-29T03:16:12;7.60;99.90
8643;DHT22;4359;49.358;11.256;2022-12-29T03:18:38;7.60;99.90
8643;DHT22;4359;49.358;11.256;2022-12-29T03:21:08;7.60;99.90
8643;DHT22;4359;49.358;11.256;2022-12-29T03:23:34;7.60;99.90
8643;DHT22;4359;49.358;11.256;2022-12-29T03:26:01;7.50;99.90
8643;DHT22;4359;49.358;11.256;2022-12-29T03:28:35;7.40;99.90
8643;DHT22;4359;49.358;11.256;2022-12-29T03:31:01;7.50;99.90
8643;DHT22;4359;49.358;11.256;2022-12-29T03:33:28;7.50;99.90
8643;DHT22;4359;49.358;11.256;2022-12-29T03:35:56;7.50;99.90
8643;DHT22;4359;49.358;11.256;2022-12-29T03:38:45;7.60;99.90
8643;DHT22;4359;49.358;11.256;2022-12-29T03:41:09;7.50;99.90
8643;DHT22;4359;49.358;11.256;2022-12-29T03:43:37;7.50;99.90
8643;DHT22;4359;49.358;11.256;2022-12-29T03:46:02;7.50;99.90
8643;DHT22;4359;49.358;11.256;2022-12-29T03:48:28;7.50;99.90
8643;DHT22;4359;49.358;11.256;2022-12-29T03:50:53;7.40;99.90
8643;DHT22;4359;49.358;11.256;2022-12-29T03:53:19;7.30;99.90
8643;DHT22;4359;49.358;11.256;2022-12-29T03:55:45;7.30;99.90
8643;DHT22;4359;49.358;11.256;2022-12-29T03:58:10;7.20;99.90
8643;DHT22;4359;49.358;11.256;2022-12-29T04:00:36;7.20;99.90
8643;DHT22;4359;49.358;11.256;2022-12-29T04:03:01;7.20;99.90
8643;DHT22;4359;49.358;11.256;2022-12-29T04:05:27;7.20;99.90
8643;DHT22;4359;49.358;11.256;2022-12-29T04:07:52;7.20;99.90
8643;DHT22;4359;49.358;11.256;2022-12-29T04:10:18;7.30;99.90
8643;DHT22;4359;49.358;11.256;2022-12-29T04:12:43;7.40;99.90
8643;DHT22;4359;49.358;11.256;2022-12-29T04:15:11;7.40;99.90
8643;DHT22;4359;49.358;11.256;2022-12-29T04:17:36;7.40;99.90
8643;DHT22;4359;49.358;11.256;2022-12-29T04:20:02;7.60;99.90
8643;DHT22;4359;49.358;11.256;2022-12-29T04:22:46;7.60;99.90
8643;DHT22;4359;49.358;11.256;2022-12-29T04:25:11;7.70;99.90
8643;DHT22;4359;49.358;11.256;2022-12-29T04:27:37;7.70;99.90
8643;DHT22;4359;49.358;11.256;2022-12-29T04:30:02;7.80;99.90
8643;DHT22;4359;49.358;11.256;2022-12-29T04:32:28;7.80;99.90
8643;DHT22;4359;49.358;11.256;2022-12-29T04:34:54;7.80;99.90
8643;DHT22;4359;49.358;11.256;2022-12-29T04:37:19;7.70;99.90
8643;DHT22;4359;49.358;11.256;2022-12-29T04:39:45;7.80;99.90
8643;DHT22;4359;49.358;11.256;2022-12-29T04:42:10;7.90;99.90
8643;DHT22;4359;49.358;11.256;2022-12-29T04:44:36;7.90;99.90
8643;DHT22;4359;49.358;11.256;2022-12-29T04:47:01;7.90;99.90
8643;DHT22;4359;49.358;11.256;2022-12-29T04:49:27;7.80;99.90
8643;DHT22;4359;49.358;11.256;2022-12-29T04:51:52;7.80;99.90
8643;DHT22;4359;49.358;11.256;2022-12-29T04:54:17;7.80;99.90
8643;DHT22;4359;49.358;11.256;2022-12-29T04:56:43;7.80;99.90
8643;DHT22;4359;49.358;11.256;2022-12-29T04:59:09;7.90;99.90
8643;DHT22;4359;49.358;11.256;2022-12-29T05:01:34;7.90;99.90
8643;DHT22;4359;49.358;11.256;2022-12-29T05:04:00;7.90;99.90
8643;DHT22;4359;49.358;11.256;2022-12-29T05:06:25;7.90;99.90
8643;DHT22;4359;49.358;11.256;2022-12-29T05:08:51;7.90;99.90
8643;DHT22;4359;49.358;11.256;2022-12-29T05:11:16;7.90;99.90
8643;DHT22;4359;49.358;11.256;2022-12-29T05:13:44;7.90;99.90
8643;DHT22;4359;49.358;11.256;2022-12-29T05:16:10;7.90;99.90
8643;DHT22;4359;49.358;11.256;2022-12-29T05:18:35;7.80;99.90
8643;DHT22;4359;49.358;11.256;2022-12-29T05:21:01;7.70;99.90
8643;DHT22;4359;49.358;11.256;2022-12-29T05:23:26;7.60;99.90
8643;DHT22;4359;49.358;11.256;2022-12-29T05:25:52;7.40;99.90
8643;DHT22;4359;49.358;11.256;2022-12-29T05:28:17;7.30;99.90
8643;DHT22;4359;49.358;11.256;2022-12-29T05:30:43;7.40;99.90
8643;DHT22;4359;49.358;11.256;2022-12-29T05:33:08;7.50;99.90
8643;DHT22;4359;49.358;11.256;2022-12-29T05:35:36;7.60;99.90
8643;DHT22;4359;49.358;11.256;2022-12-29T05:38:02;7.60;99.90
8643;DHT22;4359;49.358;11.256;2022-12-29T05:40:27;7.70;99.90
8643;DHT22;4359;49.358;11.256;2022-12-29T05:42:53;7.80;99.90
8643;DHT22;4359;49.358;11.256;2022-12-29T05:45:18;7.90;99.90
8643;DHT22;4359;49.358;11.256;2022-12-29T05:47:44;7.90;99.90
8643;DHT22;4359;49.358;11.256;2022-12-29T05:50:09;7.80;99.90
8643;DHT22;4359;49.358;11.256;2022-12-29T05:52:35;7.70;99.90
8643;DHT22;4359;49.358;11.256;2022-12-29T05:55:00;7.60;99.90
8643;DHT22;4359;49.358;11.256;2022-12-29T05:57:26;7.60;99.90
8643;DHT22;4359;49.358;11.256;2022-12-29T05:59:51;7.50;99.90
8643;DHT22;4359;49.358;11.256;2022-12-29T06:02:17;7.40;99.90
8643;DHT22;4359;49.358;11.256;2022-12-29T06:04:42;7.40;99.90
8643;DHT22;4359;49.358;11.256;2022-12-29T06:07:08;7.30;99.90
8643;DHT22;4359;49.358;11.256;2022-12-29T06:09:33;7.10;99.90
8643;DHT22;4359;49.358;11.256;2022-12-29T06:11:59;7.00;99.90
8643;DHT22;4359;49.358;11.256;2022-12-29T06:14:24;6.80;99.90
8643;DHT22;4359;49.358;11.256;2022-12-29T06:16:50;6.80;99.90
8643;DHT22;4359;49.358;11.256;2022-12-29T06:19:15;6.80;99.90
8643;DHT22;4359;49.358;11.256;2022-12-29T06:21:41;6.90;99.90
8643;DHT22;4359;49.358;11.256;2022-12-29T06:24:06;6.90;99.90
8643;DHT22;4359;49.358;11.256;2022-12-29T06:26:32;6.80;99.90
8643;DHT22;4359;49.358;11.256;2022-12-29T06:28:57;6.70;99.90
8643;DHT22;4359;49.358;11.256;2022-12-29T06:31:23;6.70;99.90
8643;DHT22;4359;49.358;11.256;2022-12-29T06:33:49;6.60;99.90
8643;DHT22;4359;49.358;11.256;2022-12-29T06:36:14;6.70;99.90
8643;DHT22;4359;49.358;11.256;2022-12-29T06:38:40;6.50;99.90
8643;DHT22;4359;49.358;11.256;2022-12-29T06:41:05;6.40;99.90
8643;DHT22;4359;49.358;11.256;2022-12-29T06:43:31;6.30;99.90
8643;DHT22;4359;49.358;11.256;2022-12-29T06:45:57;6.30;99.90
8643;DHT22;4359;49.358;11.256;2022-12-29T06:48:23;6.20;99.90
8643;DHT22;4359;49.358;11.256;2022-12-29T06:50:48;6.00;99.90
8643;DHT22;4359;49.358;11.256;2022-12-29T06:53:14;5.90;99.90
8643;DHT22;4359;49.358;11.256;2022-12-29T06:55:40;5.80;99.90
8643;DHT22;4359;49.358;11.256;2022-12-29T06:58:06;5.60;99.90
8643;DHT22;4359;49.358;11.256;2022-12-29T07:00:31;5.60;99.90
8643;DHT22;4359;49.358;11.256;2022-12-29T07:02:57;5.40;99.90
8643;DHT22;4359;49.358;11.256;2022-12-29T07:05:26;5.40;99.90
8643;DHT22;4359;49.358;11.256;2022-12-29T07:07:53;5.40;99.90
8643;DHT22;4359;49.358;11.256;2022-12-29T07:10:18;5.50;99.90
8643;DHT22;4359;49.358;11.256;2022-12-29T07:12:44;5.50;99.90
8643;DHT22;4359;49.358;11.256;2022-12-29T07:15:09;5.50;99.90
8643;DHT22;4359;49.358;11.256;2022-12-29T07:17:35;5.50;99.90
8643;DHT22;4359;49.358;11.256;2022-12-29T07:20:01;5.40;99.90
8643;DHT22;4359;49.358;11.256;2022-12-29T07:22:26;5.40;99.90
8643;DHT22;4359;49.358;11.256;2022-12-29T07:24:52;5.40;99.90
8643;DHT22;4359;49.358;11.256;2022-12-29T07:27:17;5.60;99.90
8643;DHT22;4359;49.358;11.256;2022-12-29T07:29:43;5.60;99.90
8643;DHT22;4359;49.358;11.256;2022-12-29T07:32:08;5.60;99.90
8643;DHT22;4359;49.358;11.256;2022-12-29T07:34:34;5.80;99.90
8643;DHT22;4359;49.358;11.256;2022-12-29T07:36:59;6.00;99.90
8643;DHT22;4359;49.358;11.256;2022-12-29T07:39:25;6.00;99.90
8643;DHT22;4359;49.358;11.256;2022-12-29T07:41:51;6.00;99.90
8643;DHT22;4359;49.358;11.256;2022-12-29T07:44:16;6.00;99.90
8643;DHT22;4359;49.358;11.256;2022-12-29T07:46:42;6.20;99.90
8643;DHT22;4359;49.358;11.256;2022-12-29T07:49:07;6.30;99.90
8643;DHT22;4359;49.358;11.256;2022-12-29T07:51:33;6.60;99.90
8643;DHT22;4359;49.358;11.256;2022-12-29T07:53:59;6.80;99.90
8643;DHT22;4359;49.358;11.256;2022-12-29T07:56:26;6.90;99.90
8643;DHT22;4359;49.358;11.256;2022-12-29T07:58:51;6.90;99.90
8643;DHT22;4359;49.358;11.256;2022-12-29T08:01:17;7.00;99.90
8643;DHT22;4359;49.358;11.256;2022-12-29T08:03:42;7.10;99.90
8643;DHT22;4359;49.358;11.256;2022-12-29T08:06:11;7.10;99.90
8643;DHT22;4359;49.358;11.256;2022-12-29T08:08:37;7.10;99.90
8643;DHT22;4359;49.358;11.256;2022-12-29T08:11:03;7.10;99.90
8643;DHT22;4359;49.358;11.256;2022-12-29T08:13:28;7.00;99.90
8643;DHT22;4359;49.358;11.256;2022-12-29T08:15:54;7.00;99.90
8643;DHT22;4359;49.358;11.256;2022-12-29T08:18:19;7.10;99.90
8643;DHT22;4359;49.358;11.256;2022-12-29T08:20:45;7.10;99.90
8643;DHT22;4359;49.358;11.256;2022-12-29T08:23:11;7.10;99.90
8643;DHT22;4359;49.358;11.256;2022-12-29T08:25:36;7.30;99.90
8643;DHT22;4359;49.358;11.256;2022-12-29T08:28:02;7.30;99.90
8643;DHT22;4359;49.358;11.256;2022-12-29T08:30:27;7.40;99.90
8643;DHT22;4359;49.358;11.256;2022-12-29T08:32:53;7.40;99.90
8643;DHT22;4359;49.358;11.256;2022-12-29T08:35:18;7.60;99.90
8643;DHT22;4359;49.358;11.256;2022-12-29T08:37:44;7.80;99.90
8643;DHT22;4359;49.358;11.256;2022-12-29T08:40:10;7.80;99.90
8643;DHT22;4359;49.358;11.256;2022-12-29T08:42:35;7.80;99.90
8643;DHT22;4359;49.358;11.256;2022-12-29T08:45:01;7.90;99.90
8643;DHT22;4359;49.358;11.256;2022-12-29T08:47:26;7.80;99.90
8643;DHT22;4359;49.358;11.256;2022-12-29T08:49:52;8.00;99.90
8643;DHT22;4359;49.358;11.256;2022-12-29T08:52:18;8.10;99.90
8643;DHT22;4359;49.358;11.256;2022-12-29T08:54:44;8.20;99.90
8643;DHT22;4359;49.358;11.256;2022-12-29T08:57:09;8.20;99.90
8643;DHT22;4359;49.358;11.256;2022-12-29T08:59:35;8.30;99.90
8643;DHT22;4359;49.358;11.256;2022-12-29T09:02:00;8.40;99.90
8643;DHT22;4359;49.358;11.256;2022-12-29T09:04:27;8.60;99.90
8643;DHT22;4359;49.358;11.256;2022-12-29T09:06:52;8.70;99.90
8643;DHT22;4359;49.358;11.256;2022-12-29T09:09:18;8.80;99.90
8643;DHT22;4359;49.358;11.256;2022-12-29T09:11:44;8.90;99.90
8643;DHT22;4359;49.358;11.256;2022-12-29T09:14:09;9.10;99.90
8643;DHT22;4359;49.358;11.256;2022-12-29T09:16:35;9.30;99.90
8643;DHT22;4359;49.358;11.256;2022-12-29T09:19:01;9.60;99.90
8643;DHT22;4359;49.358;11.256;2022-12-29T09:21:27;9.80;99.90
8643;DHT22;4359;49.358;11.256;2022-12-29T09:23:52;10.00;99.90
8643;DHT22;4359;49.358;11.256;2022-12-29T09:26:18;10.20;99.90
8643;DHT22;4359;49.358;11.256;2022-12-29T09:28:43;10.20;99.90
8643;DHT22;4359;49.358;11.256;2022-12-29T09:31:09;10.20;99.90
8643;DHT22;4359;49.358;11.256;2022-12-29T09:33:35;10.30;99.90
8643;DHT22;4359;49.358;11.256;2022-12-29T09:36:00;10.40;99.90
8643;DHT22;4359;49.358;11.256;2022-12-29T09:38:26;10.50;99.90
8643;DHT22;4359;49.358;11.256;2022-12-29T09:41:04;10.60;99.90
8643;DHT22;4359;49.358;11.256;2022-12-29T09:43:50;10.70;99.90
8643;DHT22;4359;49.358;11.256;2022-12-29T09:46:21;10.80;99.90
8643;DHT22;4359;49.358;11.256;2022-12-29T09:48:51;11.00;99.90
8643;DHT22;4359;49.358;11.256;2022-12-29T09:51:21;11.00;99.90
8643;DHT22;4359;49.358;11.256;2022-12-29T09:53:50;11.10;99.90
8643;DHT22;4359;49.358;11.256;2022-12-29T09:56:21;11.10;99.90
8643;DHT22;4359;49.358;11.256;2022-12-29T10:04:00;11.10;99.90
8643;DHT22;4359;49.358;11.256;2022-12-29T10:11:38;11.40;99.90
8643;DHT22;4359;49.358;11.256;2022-12-29T10:14:15;11.40;99.90
8643;DHT22;4359;49.358;11.256;2022-12-29T10:16:46;11.40;99.90
8643;DHT22;4359;49.358;11.256;2022-12-29T10:21:47;11.40;99.90
8643;DHT22;4359;49.358;11.256;2022-12-29T10:24:17;11.40;99.90
8643;DHT22;4359;49.358;11.256;2022-12-29T10:26:44;11.50;99.90
8643;DHT22;4359;49.358;11.256;2022-12-29T10:29:18;11.50;99.90
8643;DHT22;4359;49.358;11.256;2022-12-29T10:31:46;11.50;99.90
8643;DHT22;4359;49.358;11.256;2022-12-29T10:34:23;11.70;99.90
8643;DHT22;4359;49.358;11.256;2022-12-29T10:36:51;11.70;99.90
8643;DHT22;4359;49.358;11.256;2022-12-29T10:39:33;11.60;99.90
8643;DHT22;4359;49.358;11.256;2022-12-29T10:44:30;11.90;99.90
8643;DHT22;4359;49.358;11.256;2022-12-29T10:47:00;12.10;99.90
8643;DHT22;4359;49.358;11.256;2022-12-29T10:49:30;12.20;99.90
8643;DHT22;4359;49.358;11.256;2022-12-29T10:51:58;12.30;99.90
8643;DHT22;4359;49.358;11.256;2022-12-29T10:57:11;12.10;99.90
8643;DHT22;4359;49.358;11.256;2022-12-29T10:59:39;12.00;99.90
8643;DHT22;4359;49.358;11.256;2022-12-29T11:07:15;11.70;99.90
8643;DHT22;4359;49.358;11.256;2022-12-29T11:09:42;11.70;99.90
8643;DHT22;4359;49.358;11.256;2022-12-29T11:12:27;11.60;99.90
8643;DHT22;4359;49.358;11.256;2022-12-29T11:15:26;11.40;99.90
8643;DHT22;4359;49.358;11.256;2022-12-29T11:17:46;11.40;99.90
8643;DHT22;4359;49.358;11.256;2022-12-29T11:20:32;11.30;99.90
8643;DHT22;4359;49.358;11.256;2022-12-29T11:22:59;11.20;99.90
8643;DHT22;4359;49.358;11.256;2022-12-29T11:25:25;11.20;99.90
8643;DHT22;4359;49.358;11.256;2022-12-29T11:27:58;11.20;99.90
8643;DHT22;4359;49.358;11.256;2022-12-29T11:30:26;11.30;99.90
8643;DHT22;4359;49.358;11.256;2022-12-29T11:32:53;11.40;99.90
8643;DHT22;4359;49.358;11.256;2022-12-29T11:35:32;11.50;99.90
8643;DHT22;4359;49.358;11.256;2022-12-29T11:37:58;11.70;99.90
8643;DHT22;4359;49.358;11.256;2022-12-29T11:40:24;11.80;99.90
8643;DHT22;4359;49.358;11.256;2022-12-29T11:42:54;11.80;99.90
8643;DHT22;4359;49.358;11.256;2022-12-29T11:45:21;11.90;99.90
8643;DHT22;4359;49.358;11.256;2022-12-29T11:47:57;12.00;99.90
8643;DHT22;4359;49.358;11.256;2022-12-29T11:50:28;12.10;99.90
8643;DHT22;4359;49.358;11.256;2022-12-29T11:53:05;12.20;99.90
8643;DHT22;4359;49.358;11.256;2022-12-29T11:55:32;12.30;99.90
8643;DHT22;4359;49.358;11.256;2022-12-29T11:57:59;12.20;99.90
8643;DHT22;4359;49.358;11.256;2022-12-29T12:00:27;12.20;99.90
8643;DHT22;4359;49.358;11.256;2022-12-29T12:05:58;12.20;99.90
8643;DHT22;4359;49.358;11.256;2022-12-29T12:10:58;12.30;99.90
8643;DHT22;4359;49.358;11.256;2022-12-29T12:13:29;12.30;99.90
8643;DHT22;4359;49.358;11.256;2022-12-29T12:16:08;12.40;99.90
8643;DHT22;4359;49.358;11.256;2022-12-29T12:21:04;12.50;99.90
8643;DHT22;4359;49.358;11.256;2022-12-29T12:23:33;12.50;99.90
8643;DHT22;4359;49.358;11.256;2022-12-29T12:26:04;12.50;99.90
8643;DHT22;4359;49.358;11.256;2022-12-29T12:28:45;12.50;99.90
8643;DHT22;4359;49.358;11.256;2022-12-29T12:31:16;12.60;99.90
8643;DHT22;4359;49.358;11.256;2022-12-29T12:33:42;12.60;99.90
8643;DHT22;4359;49.358;11.256;2022-12-29T12:36:22;12.60;99.90
8643;DHT22;4359;49.358;11.256;2022-12-29T12:41:24;12.50;99.90
8643;DHT22;4359;49.358;11.256;2022-12-29T12:44:00;12.50;99.90
8643;DHT22;4359;49.358;11.256;2022-12-29T12:49:21;12.60;99.90
8643;DHT22;4359;49.358;11.256;2022-12-29T12:52:16;12.70;99.90
8643;DHT22;4359;49.358;11.256;2022-12-29T12:57:17;12.60;99.90
8643;DHT22;4359;49.358;11.256;2022-12-29T13:00:02;12.60;99.90
8643;DHT22;4359;49.358;11.256;2022-12-29T13:08:03;12.60;99.90
8643;DHT22;4359;49.358;11.256;2022-12-29T13:15:43;12.50;99.90
8643;DHT22;4359;49.358;11.256;2022-12-29T13:20:41;12.40;99.90
8643;DHT22;4359;49.358;11.256;2022-12-29T13:26:14;12.20;99.90
8643;DHT22;4359;49.358;11.256;2022-12-29T13:28:49;12.30;99.90
8643;DHT22;4359;49.358;11.256;2022-12-29T13:34:00;12.30;99.90
8643;DHT22;4359;49.358;11.256;2022-12-29T13:36:40;12.10;99.90
8643;DHT22;4359;49.358;11.256;2022-12-29T13:39:28;12.10;99.90
8643;DHT22;4359;49.358;11.256;2022-12-29T13:41:56;11.90;99.90
8643;DHT22;4359;49.358;11.256;2022-12-29T13:44:24;11.90;99.90
8643;DHT22;4359;49.358;11.256;2022-12-29T13:46:50;11.90;99.90
8643;DHT22;4359;49.358;11.256;2022-12-29T13:49:18;11.80;99.90
8643;DHT22;4359;49.358;11.256;2022-12-29T13:54:40;11.80;99.90
8643;DHT22;4359;49.358;11.256;2022-12-29T13:59:54;11.80;99.90
8643;DHT22;4359;49.358;11.256;2022-12-29T14:05:27;11.80;99.90
8643;DHT22;4359;49.358;11.256;2022-12-29T14:07:57;11.70;99.90
8643;DHT22;4359;49.358;11.256;2022-12-29T14:13:05;11.70;99.90
8643;DHT22;4359;49.358;11.256;2022-12-29T14:15:31;11.60;99.90
8643;DHT22;4359;49.358;11.256;2022-12-29T14:20:26;11.40;99.90
8643;DHT22;4359;49.358;11.256;2022-12-29T14:23:52;11.30;99.90
8643;DHT22;4359;49.358;11.256;2022-12-29T14:25:57;11.10;99.90
8643;DHT22;4359;49.358;11.256;2022-12-29T14:28:23;11.00;99.90
8643;DHT22;4359;49.358;11.256;2022-12-29T14:30:53;10.90;99.90
8643;DHT22;4359;49.358;11.256;2022-12-29T14:33:19;10.90;99.90
8643;DHT22;4359;49.358;11.256;2022-12-29T14:35:46;10.90;99.90
8643;DHT22;4359;49.358;11.256;2022-12-29T14:38:15;10.90;99.90
8643;DHT22;4359;49.358;11.256;2022-12-29T14:40:41;10.80;99.90
8643;DHT22;4359;49.358;11.256;2022-12-29T14:43:11;10.80;99.90
8643;DHT22;4359;49.358;11.256;2022-12-29T14:45:38;10.70;99.90
8643;DHT22;4359;49.358;11.256;2022-12-29T14:48:22;10.70;99.90
8643;DHT22;4359;49.358;11.256;2022-12-29T14:50:54;10.70;99.90
8643;DHT22;4359;49.358;11.256;2022-12-29T14:56:04;10.60;99.90
8643;DHT22;4359;49.358;11.256;2022-12-29T14:58:31;10.50;99.90
8643;DHT22;4359;49.358;11.256;2022-12-29T15:00:57;10.40;99.90
8643;DHT22;4359;49.358;11.256;2022-12-29T15:03:32;10.30;99.90
8643;DHT22;4359;49.358;11.256;2022-12-29T15:06:04;10.30;99.90
8643;DHT22;4359;49.358;11.256;2022-12-29T15:08:32;10.40;99.90
8643;DHT22;4359;49.358;11.256;2022-12-29T15:11:15;10.30;99.90
8643;DHT22;4359;49.358;11.256;2022-12-29T15:13:43;10.30;99.90
8643;DHT22;4359;49.358;11.256;2022-12-29T15:16:25;10.20;99.90
8643;DHT22;4359;49.358;11.256;2022-12-29T15:18:54;10.10;99.90
8643;DHT22;4359;49.358;11.256;2022-12-29T15:21:26;10.00;99.90
8643;DHT22;4359;49.358;11.256;2022-12-29T15:23:52;9.90;99.90
8643;DHT22;4359;49.358;11.256;2022-12-29T15:26:18;10.00;99.90
8643;DHT22;4359;49.358;11.256;2022-12-29T15:28:48;10.00;99.90
8643;DHT22;4359;49.358;11.256;2022-12-29T15:31:15;10.00;99.90
8643;DHT22;4359;49.358;11.256;2022-12-29T15:33:45;9.90;99.90
8643;DHT22;4359;49.358;11.256;2022-12-29T15:36:22;9.90;99.90
8643;DHT22;4359;49.358;11.256;2022-12-29T15:38:48;10.00;99.90
8643;DHT22;4359;49.358;11.256;2022-12-29T15:44:15;10.00;99.90
8643;DHT22;4359;49.358;11.256;2022-12-29T15:46:42;10.00;99.90
8643;DHT22;4359;49.358;11.256;2022-12-29T15:49:08;10.00;99.90
8643;DHT22;4359;49.358;11.256;2022-12-29T15:51:37;10.00;99.90
8643;DHT22;4359;49.358;11.256;2022-12-29T15:54:03;10.00;99.90
8643;DHT22;4359;49.358;11.256;2022-12-29T15:56:29;10.10;99.90
8643;DHT22;4359;49.358;11.256;2022-12-29T15:58:56;10.10;99.90
8643;DHT22;4359;49.358;11.256;2022-12-29T16:01:34;10.10;99.90
8643;DHT22;4359;49.358;11.256;2022-12-29T16:04:03;10.00;99.90
8643;DHT22;4359;49.358;11.256;2022-12-29T16:06:33;10.00;99.90
8643;DHT22;4359;49.358;11.256;2022-12-29T16:09:14;10.00;99.90
8643;DHT22;4359;49.358;11.256;2022-12-29T16:11:41;10.00;99.90
8643;DHT22;4359;49.358;11.256;2022-12-29T16:14:20;10.00;99.90
8643;DHT22;4359;49.358;11.256;2022-12-29T16:16:49;10.00;99.90
8643;DHT22;4359;49.358;11.256;2022-12-29T16:21:43;10.00;99.90
8643;DHT22;4359;49.358;11.256;2022-12-29T16:24:13;9.90;99.90
8643;DHT22;4359;49.358;11.256;2022-12-29T16:26:43;10.00;99.90
8643;DHT22;4359;49.358;11.256;2022-12-29T16:29:11;10.00;99.90
8643;DHT22;4359;49.358;11.256;2022-12-29T16:37:24;9.90;99.90
8643;DHT22;4359;49.358;11.256;2022-12-29T16:39:50;9.90;99.90
8643;DHT22;4359;49.358;11.256;2022-12-29T16:42:35;9.90;99.90
8643;DHT22;4359;49.358;11.256;2022-12-29T16:45:15;10.00;99.90
8643;DHT22;4359;49.358;11.256;2022-12-29T16:50:34;10.10;99.90
8643;DHT22;4359;49.358;11.256;2022-12-29T16:53:00;10.20;99.90
8643;DHT22;4359;49.358;11.256;2022-12-29T16:55:26;10.00;99.90
8643;DHT22;4359;49.358;11.256;2022-12-29T16:57:52;9.90;99.90
8643;DHT22;4359;49.358;11.256;2022-12-29T17:00:20;9.80;99.90
8643;DHT22;4359;49.358;11.256;2022-12-29T17:02:46;9.70;99.90
8643;DHT22;4359;49.358;11.256;2022-12-29T17:05:12;9.80;99.90
8643;DHT22;4359;49.358;11.256;2022-12-29T17:07:38;9.70;99.90
8643;DHT22;4359;49.358;11.256;2022-12-29T17:10:04;9.80;99.90
8643;DHT22;4359;49.358;11.256;2022-12-29T17:12:30;9.70;99.90
8643;DHT22;4359;49.358;11.256;2022-12-29T17:15:01;9.80;99.90
8643;DHT22;4359;49.358;11.256;2022-12-29T17:17:34;9.80;99.90
8643;DHT22;4359;49.358;11.256;2022-12-29T17:20:14;9.80;99.90
8643;DHT22;4359;49.358;11.256;2022-12-29T17:22:40;9.80;99.90
8643;DHT22;4359;49.358;11.256;2022-12-29T17:25:06;9.70;99.90
8643;DHT22;4359;49.358;11.256;2022-12-29T17:27:37;9.60;99.90
8643;DHT22;4359;49.358;11.256;2022-12-29T17:30:13;9.70;99.90
8643;DHT22;4359;49.358;11.256;2022-12-29T17:32:40;9.60;99.90
8643;DHT22;4359;49.358;11.256;2022-12-29T17:35:14;9.60;99.90
8643;DHT22;4359;49.358;11.256;2022-12-29T17:37:40;9.60;99.90
8643;DHT22;4359;49.358;11.256;2022-12-29T17:40:06;9.60;99.90
8643;DHT22;4359;49.358;11.256;2022-12-29T17:42:33;9.60;99.90
8643;DHT22;4359;49.358;11.256;2022-12-29T17:45:00;9.60;99.90
8643;DHT22;4359;49.358;11.256;2022-12-29T17:47:27;9.70;99.90
8643;DHT22;4359;49.358;11.256;2022-12-29T17:49:55;9.70;99.90
8643;DHT22;4359;49.358;11.256;2022-12-29T17:52:21;9.70;99.90
8643;DHT22;4359;49.358;11.256;2022-12-29T17:54:50;9.60;99.90
8643;DHT22;4359;49.358;11.256;2022-12-29T17:57:17;9.50;99.90
8643;DHT22;4359;49.358;11.256;2022-12-29T17:59:43;9.50;99.90
8643;DHT22;4359;49.358;11.256;2022-12-29T18:02:28;9.50;99.90